Hartford, Connecticut
Traffic Map
Current Weather Conditions
Hartford, Connecticut
Overcast
Overcast
12°
Feels Like: 12°
Wind Chill: 12° Ceiling: 3800
Heat Index: 12° Visibility: 10mi
Dew Point: Wind: 7mph
Humidity: 66% Direction: ° ()
Pressure: 29.78in Gusts: 0mph
Raw Report DataKHFD 242353Z VRB06KT 10SM OVC038 12/06 A2978 RMK AO2 SLP083 T01170056 10128 20117 50007
Traffic Incident Summary
Active as of:
Severity:
Category:
InformationThere was an issue retrieving the traffic information for this location. Please try a different location or try again shortly.
Advertisements
Track Severe Weather on mobile